Airfield :
LOGIN :

Register | Disclaimer

   EN    FR    IT 

 










Legend :    VFR   Marginal VFR   IFR   Intensive IFR   Very Intensive IFR
Visi :
Ceiling :
>= 8 km
>= 3000ft
5 to 8 km
1000 to 3000 ft
1500m to 5 km
500 to 1000 ft
800 to 1500m
200 to 500 ft
< 800m
< 200 ft
Symbols :   Thunderstorms  Fog  Heavy snow  Heavy precipitations  Wind > 20 kt
SIGMETs :     Misc.  Thunderstorms  Icing  Turbulence  Mountain Waves  Volcanic Ashes






- Airport Elevation : 160 ft
- IATA code : FMO


EDDG - Münster Osnabrück Int.

CURRENT METAR :
  • 031420Z 12003KT 050V180 9999 FEW039 20/10 Q1012 NOSIG

EXPIRED METARs :
  • 031350Z 09003KT 050V150 9999 FEW038 19/10 Q1013 NOSIG
  • 031320Z VRB02KT 9999 FEW037 19/10 Q1013 NOSIG
  • 031250Z 13003KT 060V200 9999 FEW035 20/11 Q1013 NOSIG
  • 031220Z VRB03KT 9999 FEW034 19/11 Q1013 NOSIG
  • 031150Z VRB03KT 9999 FEW037 19/11 Q1013 NOSIG

TAF TAF EDDG
Valid from the 03 at 12:00 until the 04 at 12:00 UTC


031100Z 0312/0412 VRB03KT 9999 SCT040
TEMPO 0403/0406 3500 BR
PROB30
TEMPO 0404/0406 1200 BCFG
BECMG 0407/0410 02005KT
TEMPO 0410/0412 SHRA BKN030CB



MET'MAP, your aeronautical weather chart ! - Copyright ORBIFLY December 2007 - Disclaimer

ORBIFLY MET'MAP TEAM :

Programming & Development : Alexandra Zaïnal
Concept & original design : Baudouin d'Aumeries
Assistance for programming : Marc-Olivier Méhu
Technical & hardware support : Manuel Goepfert

Contact : metmap@orbifly.com




SOURCES & CREDITS :

   NOAA